Silver Springs, FL

4:06 PM EDT on October 31, 2014 (GMT -0400)
Silver Springs Shores (Midway) | Change Station
CLOSE
Current Station
Personal Weather Station
Location: Ocala, FL
Elevation: 95 ft
Nearby Weather Stations

Elev 95 ft 29.11 °N, 82.03 °W | Updated 9 minutes ago

Clear
Clear
80.1 °F
Feels Like 80 °F
N
4.2
Wind Variable Wind from North

Today
High -- | Low -- °F
--% Chance of Precip.
Yesterday
High -- | Low -- °F
Precip. -- in
7:39 AM 6:42 PM
First Quarter, 58% visible
Pressure 29.82 in
Visibility 10.0 miles
Clouds Clear
Heat Index 80 °F
Dew Point 50 °F
Humidity 35%
Rainfall 0.00 in
Snow Depth Not available.
UV 4 out of 12
Pollen 4.30 out of 12
Air Quality Not available.
Flu Activity Not available.
METAR KOCF 311950Z 33008KT 10SM CLR 23/08 A2982

More Conditions Fewer Conditions

Pressure 29.82 in
Visibility 10.0 miles
Clouds Clear
Heat Index 80 °F
Dew Point 50 °F
Humidity 35%
Rainfall 0.00 in
Snow Depth Not available.
UV 4 out of 12
Pollen 4.30 out of 12
Air Quality Not available.
Flu Activity Not available.
METAR KOCF 311950Z 33008KT 10SM CLR 23/08 A2982

More Conditions Fewer Conditions

10-Day Weather Forecast

Almanac

Astronomy

Oct. 31, 2014 Rise Set
Actual Time
Civil Twilight
Nautical Twilight
Astronomical Twilight
Moon
Length of Visible Light
Length of Day
Tomorrow will be .
, % of the Moon is Illuminated

Today's Extremes

State Highs State Lows

Community

WunderPhotos

Upload Photos

1,766,717 photos uploaded!

WunderBlogs® & News

Nearby

Air Quality

  Air Quality AQ Index Pollutant
Not available.

Snow Depth

Station Depth Elevation

Earthquake Activity

City Distance Mag. Time & Date
Minimum magnitude displayed is 2.5.

Coastal Water Temperatures

Place Temperature

Nearby Weather Stations